Historyczne dane pomiarowe

Dodano dane terminowe – wersja testowa.

Dane z okresu 1951-2019

Wersja bazy: 1.34 [2019-03-16, lista zmian], aktualizacja planowana na 2019-04-15

Dane meteo z obszaru Polski uzyskane na podstawie danych udostępnionych przez Instytut Meteorologii i Gospodarki Wodnej – Państwowy Instytut Badawczy.

 

Wybierz Datę:    

       

TemperaturaWilgotnośćWiatrCiśnienieOpadyŚniegCzas trwania zjawisk
 Stacja t tx tn tng RH VA  wxwx mslp ppp RRR   cm mm wxwxwxwxwxwxwx
1983-08-14 14.9 17.9- 9.3-- 3.7 3.0---- 0.0------------
1983-08-13 15.2 20.3- 11.7-- 5.3 4.3---- 2.5------------
1983-08-12 20.0 25.5- 10.5-- 2.0 4.3---- 10.9------------
1983-08-11 21.6 28.6- 10.1-- 0.7 2.0---- 0.0------------
1983-08-10 20.8 26.8- 11.5-- 2.0 2.3---- 0.0------------
1983-08-09 20.7 26.6- 12.4-- 1.0 1.7---- 0.0------------
1983-08-08 20.3 25.3- 13.4-- 3.3 2.3---- 0.0------------
1983-08-07 17.3 22.7- 8.9-- 5.0 2.7---- 0.0------------
1983-08-06 15.8 20.6- 8.7-- 4.0 3.0---- 0.0------------
1983-08-05 13.7 16.7- 10.9-- 4.3 1.7---- 0.0------------
1983-08-04 11.6 12.5- 10.7-- 8.0 5.0---- 25.2------------
1983-08-03 15.5 24.1- 11.9-- 8.0 4.0---- 27.8------------
1983-08-02 22.6 31.1- 16.0-- 6.0 2.7---- 0.0------------
1983-08-01 26.1 34.9- 13.3-- 2.3 2.7---- 2.5------------
1983-07-31 19.8 28.3- 6.0-- 0.0 2.0---- 0.0------------
1983-07-30 18.9 22.8- 14.3-- 4.0 3.3---- 0.0------------
1983-07-29 18.4 24.1- 12.9-- 4.7 4.0---- 0.9------------
1983-07-28 23.6 31.0- 16.5-- 2.3 2.7---- 0.0------------
1983-07-27 25.6 35.0- 11.1-- 4.0 3.3---- 0.0------------
1983-07-26 22.4 30.3- 7.9-- 0.3 1.3---- 0.0------------
1983-07-25 19.2 26.6- 6.3-- 0.0 2.3---- 0.0------------
1983-07-24 19.4 27.0- 8.9-- 2.7 3.0---- 0.0------------
1983-07-23 20.0 26.0- 11.1-- 0.3 3.0---- 0.0------------
1983-07-22 15.5 19.9- 10.3-- 7.0 3.7---- 0.0------------
1983-07-21 14.5 18.8- 7.4-- 4.7 3.7---- 0.0------------
1983-07-20 15.0 22.1- 11.6-- 6.7 2.7---- 0.2------------
1983-07-19 20.5 29.2- 17.5-- 6.0 3.0---- 1.4------------
1983-07-18 25.8 33.5- 14.1-- 2.3 3.7---- 14.5------------
1983-07-17 21.2 28.2- 9.6-- 0.0 2.7---- 0.0------------
1983-07-16 20.9 25.4- 14.2-- 4.3 2.3---- 11.0------------
1983-07-15 21.8 26.6- 13.4-- 2.0 4.0---- 0.0------------
1983-07-14 20.5 26.0- 14.4-- 3.3 2.0---- 0.0------------
1983-07-13 21.3 26.5 16.0 13.4-- 3.3 3.3---- 0.0------------
1983-07-12 22.9 29.6 16.6 13.2-- 3.0 3.0---- 12.4------------
1983-07-11 24.9 30.5 15.9 11.4-- 1.3 2.7---- 0.0------------
1983-07-10 23.9 31.5 15.5 11.1-- 2.0 2.3---- 0.0------------
1983-07-09 22.9 30.0 11.6 7.8-- 0.0 3.0---- 0.0------------
1983-07-08 22.2 29.5 11.4 7.6-- 0.0 3.0---- 0.0------------
1983-07-07 24.0 30.2 15.4 14.2-- 0.3 4.3---- 0.0------------
1983-07-06 22.8 29.5 12.4 9.9-- 0.3 3.0---- 0.0------------
1983-07-05 20.2 26.5 10.1 7.0-- 0.3 2.0---- 0.0------------
1983-07-04 20.1 25.6 12.1 9.4-- 2.0 4.3---- 0.0------------
1983-07-03 18.3 24.3 9.1 7.5-- 2.3 2.3---- 0.0------------
1983-07-02 18.2 22.8 12.1 9.4-- 1.3 3.0---- 0.0------------
1983-07-01 18.4 24.5 12.4 9.3-- 1.7 3.3---- 0.0------------
1983-06-30 18.2 24.5 10.9 9.9-- 4.3 3.7---- 0.0------------
1983-06-29 14.0 18.1 6.4 6.0-- 4.0 3.3---- 0.0------------
1983-06-28 14.2 17.5 11.5 10.9-- 2.7 6.0---- 0.0------------
1983-06-27 17.6 23.3 13.6 12.9-- 7.0 2.7---- 1.1------------
1983-06-26 20.4 26.0 11.8 8.7-- 1.3 2.7---- 13.3------------
1983-06-25 20.9 27.8 13.2 9.9-- 0.3 2.0---- 0.0------------
1983-06-24 20.2 28.8 6.9 3.5-- 0.7 0.7---- 0.0------------
1983-06-23 17.5 24.4 6.4 6.4-- 0.3 2.3---- 0.0------------
1983-06-22 16.4 23.7 8.7 7.5-- 0.0 5.0---- 0.0------------
1983-06-21 20.7 27.2 11.9 10.7-- 0.7 3.3---- 0.0------------
1983-06-20 19.0 26.2 8.7 5.2-- 2.3 3.0---- 0.0------------
1983-06-19 17.8 23.9 8.6 8.5-- 0.7 3.7---- 0.0------------
1983-06-18 14.2 17.6 10.5 10.4-- 6.0 3.7---- 0.0------------
1983-06-17 12.0 15.6 8.0 7.5-- 4.7 3.0---- 0.4------------
1983-06-16 12.8 15.6 8.7 8.8-- 3.7 4.7---- 0.0------------
259.6 ms

 

Źródłem pochodzenia danych jest Instytut Meteorologii i Gospodarki Wodnej – Państwowy Instytut Badawczy. Dane Instytutu Meteorologii i Gospodarki Wodnej – Państwowego Instytutu Badawczego zostały przetworzone.

Dane źródłowe można odnaleźć na stronie https://dane.imgw.pl